Time;durP1;ratioP1;P1;durP2;ratioP2;P2;SDS_P1;SDS_P2;PMS_P1;PMS_P2;Temp;Humidity;BMP_temperature;BMP_pressure;BME280_temperature;BME280_humidity;BME280_pressure;Samples;Min_cycle;Max_cycle;Signal;HPM_P1;HPM_P2
2022/12/14 00:00:51;;;;;;;33.10;22.17;;;;;;;2.92;58.58;94625.78;4952966;28;20420;-77
2022/12/14 00:03:17;;;;;;;43.90;22.85;;;;;;;2.96;58.55;94631.22;4968319;28;20082;-77
2022/12/14 00:05:42;;;;;;;36.63;21.60;;;;;;;2.97;58.44;94630.81;4969377;28;20089;-78
2022/12/14 00:08:08;;;;;;;35.55;21.60;;;;;;;3.00;58.64;94632.75;4968271;28;20034;-76
2022/12/14 00:10:34;;;;;;;36.63;21.92;;;;;;;3.03;58.68;94639.31;4969173;28;20030;-77
2022/12/14 00:12:59;;;;;;;34.83;21.58;;;;;;;3.07;58.53;94640.09;4968444;28;20023;-76
2022/12/14 00:15:25;;;;;;;34.13;21.08;;;;;;;3.09;58.77;94638.50;4969056;28;20034;-77
2022/12/14 00:17:51;;;;;;;37.42;20.50;;;;;;;3.11;58.56;94636.19;4968742;28;20122;-75
2022/12/14 00:20:16;;;;;;;33.97;20.73;;;;;;;3.12;58.82;94640.47;4992283;28;20034;-75
2022/12/14 00:22:41;;;;;;;34.97;21.75;;;;;;;3.12;58.86;94647.84;4987446;28;20045;-77
2022/12/14 00:25:07;;;;;;;37.17;21.40;;;;;;;3.13;58.75;94643.94;4968940;28;20377;-76
2022/12/14 00:27:33;;;;;;;34.08;21.45;;;;;;;3.18;58.78;94635.38;4969948;28;20404;-79
2022/12/14 00:29:58;;;;;;;36.20;21.38;;;;;;;3.19;58.63;94636.94;4972261;28;20026;-77
2022/12/14 00:32:23;;;;;;;35.55;21.75;;;;;;;3.20;59.29;94638.47;4972478;28;20026;-78
2022/12/14 00:34:49;;;;;;;37.10;21.98;;;;;;;3.26;59.43;94642.31;4972185;28;20050;-76
2022/12/14 00:37:14;;;;;;;35.22;22.92;;;;;;;3.27;59.23;94634.94;4972553;28;20026;-76
2022/12/14 00:39:40;;;;;;;37.63;22.85;;;;;;;3.29;59.38;94641.53;4989934;28;20022;-77
2022/12/14 00:42:06;;;;;;;38.17;22.20;;;;;;;3.33;59.71;94638.81;4971568;28;20053;-77
2022/12/14 00:44:32;;;;;;;35.20;21.10;;;;;;;3.37;59.69;94640.31;4989815;28;20129;-77
2022/12/14 00:46:57;;;;;;;39.40;23.83;;;;;;;3.32;59.81;94643.44;4971835;28;20030;-77
2022/12/14 00:49:22;;;;;;;38.08;22.80;;;;;;;3.29;60.30;94649.69;4989729;28;20026;-78
2022/12/14 00:51:48;;;;;;;35.25;22.27;;;;;;;3.31;60.14;94652.75;5003730;28;20125;-76
2022/12/14 00:54:13;;;;;;;36.20;21.33;;;;;;;3.16;59.99;94640.44;4989132;28;20026;-77
2022/12/14 00:56:39;;;;;;;38.20;23.05;;;;;;;3.23;60.35;94640.41;4989019;28;20109;-77
2022/12/14 00:59:04;;;;;;;35.60;23.08;;;;;;;3.28;60.02;94641.94;4989303;28;20026;-76
2022/12/14 01:01:29;;;;;;;37.42;21.40;;;;;;;3.30;60.62;94648.50;5004163;28;20113;-76
2022/12/14 01:04:15;;;;;;;35.72;21.80;;;;;;;3.27;60.56;94641.16;4987742;28;20471;-76
2022/12/14 01:06:42;;;;;;;33.42;19.52;;;;;;;3.31;60.71;94633.75;4974827;28;20038;-76
2022/12/14 01:09:09;;;;;;;27.98;17.38;;;;;;;3.29;60.39;94636.09;5004164;28;20092;-75
2022/12/14 01:11:34;;;;;;;20.40;14.90;;;;;;;3.17;60.08;94633.84;5004250;28;20105;-77
2022/12/14 01:14:00;;;;;;;19.50;12.90;;;;;;;3.12;60.22;94639.69;4971354;28;20081;-76
2022/12/14 01:16:25;;;;;;;22.88;12.95;;;;;;;3.15;60.48;94634.25;4971525;28;20038;-77
2022/12/14 01:18:51;;;;;;;21.20;14.05;;;;;;;3.14;60.51;94640.81;5003811;28;20473;-77
2022/12/14 01:21:18;;;;;;;15.98;11.73;;;;;;;2.99;59.99;94641.31;4987076;28;20074;-77
2022/12/14 01:23:44;;;;;;;19.17;12.00;;;;;;;2.88;60.19;94642.13;5004136;28;20113;-75
2022/12/14 01:26:11;;;;;;;16.50;10.98;;;;;;;2.84;60.18;94629.72;4993438;28;20058;-75
2022/12/14 01:28:36;;;;;;;15.95;10.48;;;;;;;2.78;60.09;94631.31;5004572;28;20036;-76
2022/12/14 01:31:13;;;;;;;14.70;10.27;;;;;;;2.52;60.44;94621.69;4987486;28;20031;-77
2022/12/14 01:33:38;;;;;;;14.82;10.35;;;;;;;2.29;61.16;94609.34;5004197;28;20038;-76
2022/12/14 01:36:08;;;;;;;15.82;9.82;;;;;;;2.20;62.00;94609.00;4971643;28;20051;-76
2022/12/14 01:38:34;;;;;;;11.50;8.95;;;;;;;2.08;62.10;94603.97;4954756;28;20053;-76
2022/12/14 01:40:59;;;;;;;15.02;9.68;;;;;;;2.02;62.76;94608.25;4970685;28;20034;-77
2022/12/14 01:43:43;;;;;;;16.98;9.95;;;;;;;2.06;62.91;94609.00;4986801;28;20615;-76
2022/12/14 01:46:09;;;;;;;12.23;8.48;;;;;;;1.93;62.84;94607.88;4971018;28;20026;-77
2022/12/14 01:48:34;;;;;;;14.23;9.00;;;;;;;1.94;63.56;94603.97;5002840;28;20101;-77
2022/12/14 01:50:59;;;;;;;11.35;8.52;;;;;;;1.86;63.26;94606.72;5000555;28;20029;-76
2022/12/14 01:53:25;;;;;;;14.65;9.95;;;;;;;1.71;64.00;94594.31;4967301;28;20031;-76
2022/12/14 01:55:52;;;;;;;15.63;10.13;;;;;;;1.62;64.33;94587.75;4967428;28;20027;-77
2022/12/14 01:58:20;;;;;;;13.07;9.93;;;;;;;1.47;64.81;94590.44;4935573;28;20034;-76
2022/12/14 02:00:45;;;;;;;11.27;8.27;;;;;;;1.48;65.07;94593.94;4950905;28;20114;-77
2022/12/14 02:03:13;;;;;;;13.07;9.43;;;;;;;1.47;65.26;94603.22;4969593;28;20514;-76
2022/12/14 02:05:46;;;;;;;13.50;9.75;;;;;;;1.40;65.43;94597.81;4968096;28;20031;-77
2022/12/14 02:08:11;;;;;;;13.13;9.30;;;;;;;1.36;65.24;94603.22;4983684;28;20037;-77
2022/12/14 02:10:37;;;;;;;13.85;8.70;;;;;;;1.29;65.61;94600.50;4982875;28;20027;-76
2022/12/14 02:13:13;;;;;;;10.73;7.43;;;;;;;1.35;65.69;94596.25;4951036;28;20031;-76
2022/12/14 02:15:39;;;;;;;11.15;7.70;;;;;;;1.43;65.15;94586.19;4968116;28;20073;-79
2022/12/14 02:18:04;;;;;;;11.15;7.38;;;;;;;1.42;65.27;94587.34;4950815;28;20034;-78
2022/12/14 02:20:34;;;;;;;10.40;6.75;;;;;;;1.40;64.81;94576.91;4950718;28;20034;-77
2022/12/14 02:23:08;;;;;;;10.48;7.50;;;;;;;1.42;64.46;94576.50;4982617;28;20030;-77
2022/12/14 02:26:28;;;;;;;9.93;6.85;;;;;;;1.26;65.05;94577.69;4966770;28;20100;-77
2022/12/14 02:29:12;;;;;;;10.70;7.20;;;;;;;1.12;65.31;94579.59;4966145;28;20172;-77
2022/12/14 02:31:59;;;;;;;13.82;6.75;;;;;;;0.95;65.56;94578.41;4969977;28;20046;-79
2022/12/14 02:35:02;;;;;;;13.20;7.40;;;;;;;0.85;66.13;94574.50;4970051;28;20073;-76
2022/12/14 02:37:38;;;;;;;10.18;7.55;;;;;;;0.81;66.15;94579.16;4968458;28;20059;-78
2022/12/14 02:40:22;;;;;;;11.70;7.03;;;;;;;0.90;65.84;94574.13;4968140;28;20031;-77
2022/12/14 02:42:57;;;;;;;14.40;7.53;;;;;;;0.95;65.88;94565.63;4951422;28;20622;-77
2022/12/14 02:45:40;;;;;;;10.10;7.32;;;;;;;1.00;65.75;94567.97;4968486;28;20034;-77
2022/12/14 02:48:12;;;;;;;10.52;7.50;;;;;;;1.15;65.25;94568.78;4951825;28;20145;-78
2022/12/14 02:50:52;;;;;;;11.18;7.20;;;;;;;1.20;64.61;94568.38;4950905;28;20034;-79
2022/12/14 02:53:32;;;;;;;11.20;7.25;;;;;;;1.25;64.23;94561.81;4967675;28;20061;-75
2022/12/14 02:56:00;;;;;;;9.55;7.32;;;;;;;1.27;64.49;94565.69;4934432;28;20042;-75
2022/12/14 02:58:31;;;;;;;11.13;7.15;;;;;;;1.36;64.47;94562.59;4982529;28;20031;-77
2022/12/14 03:00:57;;;;;;;10.57;6.70;;;;;;;1.53;63.52;94567.22;4982528;28;20045;-76
2022/12/14 03:03:22;;;;;;;8.63;6.15;;;;;;;1.66;63.31;94564.13;4950810;28;20498;-74
2022/12/14 03:05:59;;;;;;;10.85;6.63;;;;;;;1.71;62.29;94564.50;4949943;28;20054;-74
2022/12/14 03:08:25;;;;;;;10.00;7.40;;;;;;;1.74;61.90;94563.75;4950510;28;20051;-75
2022/12/14 03:10:50;;;;;;;9.40;6.95;;;;;;;1.68;62.29;94573.44;4981751;28;20038;-75
2022/12/14 03:13:28;;;;;;;11.15;7.05;;;;;;;1.68;62.45;94562.59;4967899;28;20023;-76
2022/12/14 03:16:22;;;;;;;9.40;6.82;;;;;;;1.66;61.54;94556.00;4950223;28;20034;-75
2022/12/14 03:18:57;;;;;;;11.07;7.18;;;;;;;1.65;61.94;94557.94;4964307;28;20093;-77
2022/12/14 03:21:45;;;;;;;12.98;6.85;;;;;;;1.65;61.71;94557.16;4965251;28;20043;-76
2022/12/14 03:24:11;;;;;;;9.18;6.47;;;;;;;1.59;61.51;94554.06;4964364;28;20074;-76
2022/12/14 03:26:57;;;;;;;10.52;7.07;;;;;;;1.56;62.12;94549.44;4964866;28;20572;-76
2022/12/14 03:29:28;;;;;;;11.15;6.88;;;;;;;1.64;62.05;94559.09;4964855;28;20051;-76
2022/12/14 03:32:06;;;;;;;11.57;7.57;;;;;;;1.75;61.97;94561.81;4948384;28;20062;-76
2022/12/14 03:34:36;;;;;;;9.35;6.85;;;;;;;1.81;61.58;94566.44;4964983;28;20026;-77
2022/12/14 03:37:13;;;;;;;10.95;7.85;;;;;;;1.81;61.27;94562.97;4964229;28;20221;-76
2022/12/14 03:39:40;;;;;;;11.38;7.82;;;;;;;1.84;61.33;94564.91;4969919;28;20445;-77
2022/12/14 03:42:38;;;;;;;11.68;7.68;;;;;;;1.92;61.24;94577.28;4965482;28;20542;-75
2022/12/14 03:45:07;;;;;;;12.98;7.82;;;;;;;2.01;61.10;94574.16;4980859;28;20035;-76
2022/12/14 03:47:41;;;;;;;9.80;7.22;;;;;;;2.09;60.30;94565.63;4965511;28;20037;-77
2022/12/14 03:50:47;;;;;;;10.27;7.30;;;;;;;2.12;60.16;94556.72;4964713;28;20154;-76
2022/12/14 03:53:19;;;;;;;10.80;7.07;;;;;;;2.19;60.05;94547.78;4964651;28;20039;-76
2022/12/14 03:56:09;;;;;;;9.77;6.93;;;;;;;2.18;60.08;94553.56;4937767;29;20502;-77
2022/12/14 03:58:53;;;;;;;10.40;6.65;;;;;;;2.17;59.93;94543.91;4945175;29;20490;-77
2022/12/14 04:01:45;;;;;;;11.18;6.90;;;;;;;2.21;60.13;94571.78;4945376;29;20039;-76
2022/12/14 04:04:14;;;;;;;10.10;6.93;;;;;;;2.28;59.80;94566.34;4948851;29;20039;-75
2022/12/14 04:06:44;;;;;;;9.15;7.50;;;;;;;2.31;59.91;94565.56;4948868;29;20046;-75
2022/12/14 04:09:18;;;;;;;10.65;6.90;;;;;;;2.35;59.46;94569.81;4948890;29;20118;-77
2022/12/14 04:20:23;;;;;;;;;;;;;;;2.46;58.57;94567.03;4935720;29;20035;-77
2022/12/14 04:22:52;;;;;;;8.77;6.72;;;;;;;2.39;58.15;94561.66;4948570;29;19915;-75
2022/12/14 04:31:06;;;;;;;11.55;7.75;;;;;;;2.36;58.69;94571.34;4970307;28;20421;-76
2022/12/14 04:33:46;;;;;;;10.30;6.95;;;;;;;2.37;58.71;94575.63;4985259;28;20029;-76
2022/12/14 04:36:41;;;;;;;9.45;6.53;;;;;;;2.45;58.73;94581.78;4983233;28;20448;-75
2022/12/14 04:39:10;;;;;;;10.85;7.07;;;;;;;2.49;58.85;94579.06;4952173;28;20481;-77
2022/12/14 04:41:39;;;;;;;7.70;6.35;;;;;;;2.52;58.66;94572.84;4985521;28;20094;-76
2022/12/14 04:44:12;;;;;;;10.52;7.20;;;;;;;2.59;58.65;94581.75;4970939;28;20383;-76
2022/12/14 04:46:37;;;;;;;8.57;6.53;;;;;;;2.65;58.03;94579.41;4957642;28;20041;-76
2022/12/14 04:49:17;;;;;;;11.23;7.00;;;;;;;2.69;57.82;94585.56;4953440;28;20031;-75
2022/12/14 04:51:45;;;;;;;9.80;6.93;;;;;;;2.73;57.35;94570.03;4977237;28;20620;-76
2022/12/14 04:54:20;;;;;;;9.57;6.90;;;;;;;2.72;57.18;94578.59;4989319;28;20030;-75
2022/12/14 04:56:50;;;;;;;11.70;7.10;;;;;;;2.72;57.68;94568.50;4988769;28;20037;-75
2022/12/14 04:59:15;;;;;;;10.00;6.85;;;;;;;2.75;57.89;94569.63;5003802;28;20096;-78
2022/12/14 05:01:57;;;;;;;12.00;8.10;;;;;;;2.79;58.13;94575.84;5004658;28;20658;-77
2022/12/14 05:04:25;;;;;;;9.45;7.80;;;;;;;2.76;57.97;94571.97;5004051;28;20034;-76
2022/12/14 05:06:59;;;;;;;11.38;7.45;;;;;;;2.79;57.86;94559.53;4989589;28;20040;-75
2022/12/14 05:09:37;;;;;;;9.25;7.18;;;;;;;2.84;58.21;94568.06;4989248;28;20030;-76
2022/12/14 05:12:26;;;;;;;9.30;7.22;;;;;;;2.84;58.32;94575.44;4988251;28;20045;-76
2022/12/14 05:14:59;;;;;;;9.52;7.60;;;;;;;2.86;58.48;94579.28;4970707;28;20193;-77
2022/12/14 05:17:25;;;;;;;10.98;8.00;;;;;;;2.86;58.82;94603.72;4971140;28;20617;-78
2022/12/14 05:19:50;;;;;;;12.40;8.60;;;;;;;2.89;59.08;94602.94;4971401;28;20089;-78
2022/12/14 05:22:16;;;;;;;14.60;9.35;;;;;;;2.87;59.43;94609.94;4988720;28;20038;-78
2022/12/14 05:24:41;;;;;;;13.90;9.38;;;;;;;2.86;59.50;94611.84;5003467;28;20401;-77
2022/12/14 05:27:07;;;;;;;16.52;9.82;;;;;;;2.78;59.76;94607.63;4971127;28;20041;-82
2022/12/14 05:29:32;;;;;;;15.18;9.52;;;;;;;2.88;59.73;94614.97;4971078;28;20022;-77
2022/12/14 05:31:58;;;;;;;12.98;10.10;;;;;;;2.88;59.79;94617.69;4988952;28;20026;-77
2022/12/14 05:34:24;;;;;;;12.88;9.13;;;;;;;2.90;59.81;94620.78;4986866;28;20035;-76
2022/12/14 05:36:49;;;;;;;13.45;9.70;;;;;;;2.95;59.95;94616.09;4971424;28;20413;-76
2022/12/14 05:39:14;;;;;;;13.25;10.10;;;;;;;2.88;59.87;94612.25;4988275;28;20468;-79
2022/12/14 05:41:40;;;;;;;13.65;10.00;;;;;;;2.88;60.01;94606.81;4971057;28;20101;-77
2022/12/14 05:44:05;;;;;;;15.00;9.70;;;;;;;2.86;59.90;94603.72;4987196;28;20038;-77
2022/12/14 05:46:31;;;;;;;14.20;10.55;;;;;;;2.83;60.33;94609.19;5003269;28;20059;-77
2022/12/14 05:48:56;;;;;;;14.70;9.73;;;;;;;2.79;60.34;94606.47;4988623;28;20026;-77
2022/12/14 05:51:22;;;;;;;16.13;10.45;;;;;;;2.78;60.82;94607.63;4993315;28;20046;-77
2022/12/14 05:53:47;;;;;;;13.88;10.77;;;;;;;2.82;61.21;94621.97;4989414;28;20098;-76
2022/12/14 05:56:13;;;;;;;13.18;10.82;;;;;;;2.77;60.84;94614.25;4970736;28;20022;-77
2022/12/14 05:58:38;;;;;;;12.65;10.90;;;;;;;2.79;61.06;94630.91;4971522;28;20037;-76
2022/12/14 06:01:06;;;;;;;14.55;10.25;;;;;;;2.69;61.02;94623.56;4971043;28;20432;-76
2022/12/14 06:03:31;;;;;;;14.38;10.68;;;;;;;2.65;61.27;94625.53;4970917;28;20042;-75
2022/12/14 06:06:04;;;;;;;14.18;10.75;;;;;;;2.61;61.58;94625.53;4970936;28;20080;-76
2022/12/14 06:08:37;;;;;;;13.02;9.77;;;;;;;2.51;61.93;94615.47;4987370;28;20031;-76
2022/12/14 06:11:16;;;;;;;12.95;10.25;;;;;;;2.34;62.65;94622.50;4969942;28;20085;-75
2022/12/14 06:13:41;;;;;;;13.98;9.75;;;;;;;2.24;63.22;94604.34;4970415;28;20041;-78
2022/12/14 06:16:14;;;;;;;13.65;9.23;;;;;;;2.20;63.87;94611.69;4969434;28;20404;-77
2022/12/14 06:18:44;;;;;;;12.77;10.23;;;;;;;2.03;64.42;94616.00;4970692;28;20026;-76
2022/12/14 06:21:11;;;;;;;14.27;10.50;;;;;;;1.98;64.73;94618.31;4970290;28;20523;-76
2022/12/14 06:23:36;;;;;;;15.15;11.02;;;;;;;2.01;64.89;94634.59;4970455;28;20032;-77
2022/12/14 06:26:02;;;;;;;13.70;10.48;;;;;;;2.03;64.95;94631.47;4987437;28;20018;-77
2022/12/14 06:28:27;;;;;;;13.18;10.02;;;;;;;2.02;64.59;94644.28;4970499;28;20023;-77
2022/12/14 06:30:53;;;;;;;13.02;10.40;;;;;;;1.92;64.88;94638.84;5001973;28;20033;-77
2022/12/14 06:33:18;;;;;;;11.55;9.73;;;;;;;1.95;64.82;94635.34;4987638;28;20027;-77
2022/12/14 06:35:44;;;;;;;15.73;11.02;;;;;;;1.97;64.77;94639.22;4987083;28;20030;-75
2022/12/14 06:38:10;;;;;;;15.43;11.32;;;;;;;1.90;65.25;94628.41;4970339;28;20126;-78
2022/12/14 06:40:36;;;;;;;15.88;11.75;;;;;;;1.88;65.52;94635.34;4969571;28;20030;-76
2022/12/14 06:43:01;;;;;;;17.65;12.20;;;;;;;1.84;65.59;94625.31;4968976;28;20030;-75
2022/12/14 06:45:28;;;;;;;16.65;12.30;;;;;;;1.83;65.71;94629.16;4987193;28;20030;-77
2022/12/14 06:47:53;;;;;;;13.32;10.00;;;;;;;1.76;65.15;94628.41;4969303;28;20045;-77
2022/12/14 06:50:18;;;;;;;12.55;9.35;;;;;;;1.61;65.15;94638.47;4969860;28;20436;-77
2022/12/14 06:52:47;;;;;;;12.75;9.77;;;;;;;1.56;66.23;94642.34;4986459;28;20192;-76
2022/12/14 06:55:13;;;;;;;16.83;11.18;;;;;;;1.57;67.18;94646.59;4987468;28;20036;-78
2022/12/14 06:57:38;;;;;;;15.90;11.90;;;;;;;1.57;67.54;94646.59;4991007;28;20027;-77
2022/12/14 07:00:04;;;;;;;18.05;12.38;;;;;;;1.68;66.81;94656.66;4987378;28;20084;-76
2022/12/14 07:02:30;;;;;;;18.33;13.90;;;;;;;1.72;66.53;94660.94;4987073;28;20092;-76
2022/12/14 07:04:55;;;;;;;21.23;14.05;;;;;;;1.74;66.25;94661.31;4969159;28;20030;-77
2022/12/14 07:07:20;;;;;;;19.98;13.98;;;;;;;1.76;66.59;94666.34;4988606;28;20026;-79
2022/12/14 07:09:46;;;;;;;21.17;14.27;;;;;;;1.77;66.36;94660.53;5002424;28;20038;-78
2022/12/14 07:12:11;;;;;;;21.45;13.07;;;;;;;1.80;66.30;94662.47;4987515;28;20042;-76
2022/12/14 07:14:37;;;;;;;21.92;14.43;;;;;;;1.71;66.43;94651.22;4969124;28;20023;-77
2022/12/14 07:17:02;;;;;;;20.58;14.40;;;;;;;1.60;66.39;94653.94;4987013;28;20108;-76
2022/12/14 07:19:28;;;;;;;18.50;13.82;;;;;;;1.60;67.02;94647.72;4986800;28;20026;-77
2022/12/14 07:21:53;;;;;;;23.55;15.07;;;;;;;1.58;67.13;94655.47;4986585;28;20196;-76
2022/12/14 07:24:18;;;;;;;19.67;14.27;;;;;;;1.64;66.59;94664.00;4987007;28;20464;-75
2022/12/14 07:26:44;;;;;;;22.02;14.55;;;;;;;1.68;66.84;94654.72;4968917;28;20437;-76
2022/12/14 07:29:10;;;;;;;22.75;14.65;;;;;;;1.74;66.27;94649.69;4987479;28;20030;-76
2022/12/14 07:31:36;;;;;;;17.15;13.27;;;;;;;1.76;66.25;94644.66;4978467;28;20113;-77
2022/12/14 07:34:01;;;;;;;19.05;13.30;;;;;;;1.85;65.13;94662.09;4986669;28;20034;-76
2022/12/14 07:36:28;;;;;;;18.55;13.90;;;;;;;1.81;65.11;94665.94;4986800;28;20034;-77
2022/12/14 07:38:54;;;;;;;20.63;13.65;;;;;;;1.84;65.29;94657.84;5004740;28;20572;-75
2022/12/14 07:41:24;;;;;;;20.13;13.98;;;;;;;1.91;65.08;94667.91;5006063;28;20030;-76
2022/12/14 07:43:50;;;;;;;23.42;15.13;;;;;;;1.96;64.84;94667.50;5003268;28;20494;-77
2022/12/14 07:46:20;;;;;;;21.33;14.75;;;;;;;2.06;64.55;94663.22;5005983;28;20907;-76
2022/12/14 07:48:47;;;;;;;20.63;15.25;;;;;;;2.12;64.23;94658.97;4972568;28;20034;-77
2022/12/14 07:51:13;;;;;;;25.73;15.40;;;;;;;2.07;64.22;94664.81;5005699;28;20053;-77
2022/12/14 07:53:39;;;;;;;21.98;15.13;;;;;;;2.04;64.22;94663.63;5005374;28;20030;-77
2022/12/14 07:56:10;;;;;;;21.63;15.07;;;;;;;2.08;64.23;94664.41;4990609;28;20026;-77
2022/12/14 07:58:35;;;;;;;22.70;15.32;;;;;;;2.05;64.19;94658.97;4989110;28;20041;-77
2022/12/14 08:01:30;;;;;;;23.25;16.17;;;;;;;2.03;64.70;94680.28;5004971;28;20026;-77
2022/12/14 08:04:02;;;;;;;23.42;14.93;;;;;;;2.04;64.54;94673.69;4992443;28;20034;-76
2022/12/14 08:06:28;;;;;;;23.05;16.10;;;;;;;2.11;64.39;94682.59;5005839;28;20042;-77
2022/12/14 08:08:54;;;;;;;26.23;16.27;;;;;;;2.20;64.46;94687.63;5006248;28;20414;-77
2022/12/14 08:11:22;;;;;;;25.80;16.38;;;;;;;2.26;64.17;94683.38;4972968;28;20031;-76
2022/12/14 08:14:01;;;;;;;22.88;16.73;;;;;;;2.32;63.72;94686.47;5004470;28;20104;-77
2022/12/14 08:16:27;;;;;;;24.42;16.15;;;;;;;2.34;63.70;94694.97;4989252;28;20033;-77
2022/12/14 08:18:53;;;;;;;21.65;14.95;;;;;;;2.36;63.81;94696.16;4988401;28;20108;-77
2022/12/14 08:21:20;;;;;;;22.10;14.55;;;;;;;2.44;63.69;94702.34;5005661;28;20030;-76
2022/12/14 08:23:46;;;;;;;22.63;14.73;;;;;;;2.43;63.61;94697.31;5004237;28;20034;-78
2022/12/14 08:26:13;;;;;;;22.20;14.70;;;;;;;2.41;63.71;94705.84;5005349;28;20050;-77
2022/12/14 08:28:39;;;;;;;19.08;13.90;;;;;;;2.39;63.71;94692.66;4988505;28;20080;-77
2022/12/14 08:31:08;;;;;;;20.05;14.73;;;;;;;2.45;63.51;94689.53;5004318;28;20026;-76
2022/12/14 08:33:36;;;;;;;20.30;14.13;;;;;;;2.44;63.82;94688.78;5004927;28;20038;-76
2022/12/14 08:36:12;;;;;;;21.73;15.20;;;;;;;2.48;63.33;94691.50;5003982;28;20049;-76
2022/12/14 08:38:40;;;;;;;24.15;16.38;;;;;;;2.48;63.69;94688.78;4972460;28;20080;-77
2022/12/14 08:41:13;;;;;;;27.63;16.23;;;;;;;2.50;63.40;94689.91;4987909;28;20027;-77
2022/12/14 08:43:42;;;;;;;24.30;16.70;;;;;;;2.51;63.29;94696.88;5005034;28;20030;-77
2022/12/14 08:46:08;;;;;;;23.08;16.40;;;;;;;2.57;63.16;94705.41;5004133;28;20030;-77
2022/12/14 08:48:33;;;;;;;22.20;16.40;;;;;;;2.65;63.04;94699.59;4989092;28;20037;-79
2022/12/14 08:51:07;;;;;;;21.83;15.57;;;;;;;2.74;62.63;94696.44;5004274;28;20468;-75
2022/12/14 08:53:32;;;;;;;;;;;;;;;2.82;62.41;94686.38;5004569;28;20058;-76
2022/12/14 08:55:58;;;;;;;19.23;13.20;;;;;;;2.75;62.14;94697.22;4989849;28;19950;-76
2022/12/14 08:58:24;;;;;;;18.13;14.70;;;;;;;2.67;63.08;94696.47;4988909;28;20030;-78
2022/12/14 09:00:49;;;;;;;21.13;14.88;;;;;;;2.71;62.68;94689.09;4989427;28;20107;-78
2022/12/14 09:03:15;;;;;;;20.15;14.63;;;;;;;2.76;62.83;94701.50;5004252;28;20037;-77
2022/12/14 09:05:40;;;;;;;21.02;15.55;;;;;;;2.74;62.46;94688.31;5003913;28;20045;-77
2022/12/14 09:08:06;;;;;;;20.17;15.25;;;;;;;2.73;62.45;94680.56;4988449;28;20034;-78
2022/12/14 09:10:32;;;;;;;18.23;13.27;;;;;;;2.74;62.27;94688.31;4992429;28;20041;-77
2022/12/14 09:12:57;;;;;;;17.85;13.13;;;;;;;2.76;62.18;94683.28;4989784;28;20049;-77
2022/12/14 09:15:23;;;;;;;19.17;13.52;;;;;;;2.70;62.56;94668.56;4987759;28;20100;-77
2022/12/14 09:17:49;;;;;;;21.45;13.45;;;;;;;2.78;62.49;94669.31;4989647;28;20404;-76
2022/12/14 09:20:15;;;;;;;22.27;13.80;;;;;;;2.80;62.10;94672.38;4988992;28;20466;-77
2022/12/14 09:22:40;;;;;;;19.65;14.30;;;;;;;2.80;62.36;94675.09;5004269;28;20037;-76
2022/12/14 09:25:07;;;;;;;21.67;14.55;;;;;;;2.87;62.41;94667.72;4988914;28;20023;-77
2022/12/14 09:27:32;;;;;;;18.05;13.38;;;;;;;2.93;62.21;94670.81;4971385;28;20613;-77
2022/12/14 09:29:58;;;;;;;22.50;15.18;;;;;;;2.91;62.18;94656.84;4971587;28;20038;-78
2022/12/14 09:32:23;;;;;;;20.20;14.63;;;;;;;3.01;62.35;94652.53;5003284;28;20042;-76
2022/12/14 09:34:49;;;;;;;22.60;15.82;;;;;;;3.04;62.36;94647.09;4987919;28;20085;-77
2022/12/14 09:37:14;;;;;;;23.23;15.75;;;;;;;3.13;61.93;94647.44;4986879;28;20030;-77
2022/12/14 09:39:40;;;;;;;20.92;15.27;;;;;;;3.25;61.66;94654.34;4990027;28;20089;-78
2022/12/14 09:42:37;;;;;;;26.38;15.80;;;;;;;3.31;61.60;94652.75;4987591;28;20030;-76
2022/12/14 09:45:16;;;;;;;23.77;16.08;;;;;;;3.38;61.71;94663.63;4970798;28;20033;-78
2022/12/14 09:48:19;;;;;;;23.13;16.48;;;;;;;3.40;61.39;94661.25;5003803;28;20040;-76
2022/12/14 09:50:47;;;;;;;25.48;15.73;;;;;;;3.43;61.30;94654.25;4943872;29;20079;-76
2022/12/14 09:53:13;;;;;;;24.25;16.55;;;;;;;3.45;61.32;94660.84;4927904;29;20039;-77
2022/12/14 09:55:49;;;;;;;23.83;16.05;;;;;;;3.46;61.31;94648.03;4928259;29;20039;-77
2022/12/14 09:58:25;;;;;;;22.08;16.02;;;;;;;3.51;61.24;94636.75;4927363;29;20134;-76
2022/12/14 10:01:20;;;;;;;23.08;16.63;;;;;;;3.56;60.99;94636.31;4896554;29;20151;-76
2022/12/14 10:04:01;;;;;;;22.92;16.35;;;;;;;3.59;61.24;94632.78;4903047;29;20523;-77
2022/12/14 10:07:00;;;;;;;19.90;15.45;;;;;;;3.65;61.00;94638.59;4927363;29;20440;-76
2022/12/14 10:09:31;;;;;;;18.00;13.15;;;;;;;3.67;61.01;94630.78;4926186;29;20881;-76
2022/12/14 10:12:09;;;;;;;21.50;15.20;;;;;;;3.68;61.36;94627.69;4927143;29;20150;-75
2022/12/14 10:14:53;;;;;;;21.70;15.15;;;;;;;3.69;61.06;94633.91;4912840;29;20111;-78
2022/12/14 10:17:18;;;;;;;18.40;13.77;;;;;;;3.60;61.04;94625.41;4929127;29;20042;-78
2022/12/14 10:19:53;;;;;;;20.80;14.63;;;;;;;3.53;61.55;94617.31;4927500;29;20040;-77
2022/12/14 10:22:20;;;;;;;22.00;14.95;;;;;;;3.53;61.31;94626.25;4928059;29;20035;-76
2022/12/14 10:24:51;;;;;;;23.65;15.90;;;;;;;3.53;61.66;94615.38;4957625;28;20058;-76
2022/12/14 10:27:21;;;;;;;22.60;15.30;;;;;;;3.54;61.16;94622.34;5003452;28;20026;-78
2022/12/14 10:29:54;;;;;;;19.45;13.82;;;;;;;3.54;61.07;94616.13;4970443;28;20517;-77
2022/12/14 10:32:34;;;;;;;24.35;13.68;;;;;;;3.49;60.32;94620.03;4969921;28;20085;-77
2022/12/14 10:35:13;;;;;;;16.45;12.02;;;;;;;3.50;60.32;94626.25;4986820;28;20038;-76
2022/12/14 10:37:42;;;;;;;16.08;11.07;;;;;;;3.52;60.31;94613.06;4969874;28;20026;-76
2022/12/14 10:40:07;;;;;;;14.68;9.80;;;;;;;3.54;59.52;94602.53;4970517;28;20034;-77
2022/12/14 10:42:40;;;;;;;14.68;9.32;;;;;;;3.37;59.46;94621.28;5001944;28;20101;-75
2022/12/14 10:45:21;;;;;;;12.43;9.80;;;;;;;3.35;60.07;94603.84;4987678;28;20062;-76
2022/12/14 10:47:49;;;;;;;13.38;10.05;;;;;;;3.42;59.88;94610.00;4986393;28;20417;-77
2022/12/14 10:50:15;;;;;;;16.80;11.18;;;;;;;3.49;59.45;94602.97;5001971;28;20485;-77
2022/12/14 10:52:41;;;;;;;13.50;10.10;;;;;;;3.47;59.75;94587.84;4987459;28;20092;-76
2022/12/14 10:55:15;;;;;;;16.20;9.95;;;;;;;3.45;59.56;94592.91;4985193;28;20034;-76
2022/12/14 10:57:40;;;;;;;13.77;10.15;;;;;;;3.49;59.27;94587.44;4970327;28;20040;-77
2022/12/14 11:00:14;;;;;;;15.48;10.70;;;;;;;3.51;59.74;94593.25;5002017;28;20027;-77
2022/12/14 11:02:47;;;;;;;16.95;12.20;;;;;;;3.55;59.89;94585.84;5002331;28;20513;-77
2022/12/14 11:05:40;;;;;;;18.48;12.38;;;;;;;3.68;59.70;94578.00;5002166;28;20039;-77
2022/12/14 11:08:06;;;;;;;19.85;12.73;;;;;;;3.81;59.57;94578.25;4985466;28;20966;-76
2022/12/14 11:10:33;;;;;;;17.38;11.75;;;;;;;3.87;58.70;94573.94;5002421;28;20054;-76
2022/12/14 11:13:07;;;;;;;15.60;9.95;;;;;;;3.86;59.04;94573.16;5000313;28;20035;-76
2022/12/14 11:15:36;;;;;;;14.77;10.30;;;;;;;3.82;59.24;94577.84;4986792;28;20038;-77
2022/12/14 11:18:11;;;;;;;14.18;11.02;;;;;;;3.89;59.29;94566.13;4985329;28;20038;-76
2022/12/14 11:20:47;;;;;;;14.20;9.82;;;;;;;4.03;58.94;94574.19;4969066;28;20117;-76
2022/12/14 11:23:19;;;;;;;12.90;10.05;;;;;;;4.13;58.91;94567.88;4974501;28;20026;-76
2022/12/14 11:25:46;;;;;;;15.25;10.85;;;;;;;4.19;58.53;94566.25;4986757;28;20037;-78
2022/12/14 11:28:40;;;;;;;19.10;11.90;;;;;;;4.27;58.08;94558.78;4970426;28;20263;-77
2022/12/14 11:31:12;;;;;;;16.77;12.57;;;;;;;4.39;57.74;94560.19;4971489;28;20035;-76
2022/12/14 11:33:47;;;;;;;16.63;11.73;;;;;;;4.47;57.28;94557.00;5001145;28;20095;-76
2022/12/14 11:36:27;;;;;;;16.90;11.90;;;;;;;4.55;57.51;94559.63;4971181;28;20621;-77
2022/12/14 11:38:58;;;;;;;19.35;12.55;;;;;;;4.56;57.59;94556.50;4986421;28;20037;-77
2022/12/14 11:41:31;;;;;;;21.05;10.93;;;;;;;4.67;56.94;94550.94;4985764;28;20042;-78
2022/12/14 11:44:15;;;;;;;17.83;11.57;;;;;;;4.65;56.48;94558.75;4954330;28;20073;-78
2022/12/14 11:46:41;;;;;;;14.27;11.55;;;;;;;4.67;56.65;94559.88;4957485;28;20026;-78
2022/12/14 11:49:33;;;;;;;17.77;11.43;;;;;;;4.69;56.30;94554.00;4972306;28;20038;-76
2022/12/14 11:52:04;;;;;;;16.92;11.43;;;;;;;4.74;56.40;94551.59;4987383;28;20054;-77
2022/12/14 11:54:31;;;;;;;14.52;10.50;;;;;;;4.76;56.07;94553.94;5002101;28;20129;-77
2022/12/14 11:57:00;;;;;;;14.35;10.50;;;;;;;4.78;55.74;94555.06;4969847;28;20034;-76
2022/12/14 11:59:31;;;;;;;15.52;11.10;;;;;;;4.85;55.76;94551.47;4969051;28;20038;-77